Terminal Aerodrome Forecast
Issued by NWS North Platte, NE

Home | Current Version | Previous Version | Text Only | Print | Product List | Glossary On
Versions: 1 2 3 4 5 6 7 8 9 10 11 12 13 14 15 16 17 18 19 20 21 22
000
FTUS43 KLBF 282300
TAFVTN
TAF
KVTN 282336Z 2900/2924 34010KT P6SM VCTS BKN050CB BKN120
      TEMPO 2900/2902 2SM +TSRA BKN035CB
     FM290200 VRB06KT P6SM OVC050
     FM291200 32008KT P6SM SCT100 BKN250=

USA.gov is the U.S. government's official web portal to all federal, state and local government web resources and services.